createdAt,value
2023-02-27T00:01:37.310Z,102342.75
2023-02-27T00:04:04.208Z,102343.25
2023-02-27T00:06:31.714Z,102348.75
2023-02-27T00:08:58.557Z,102349.75
2023-02-27T00:11:25.776Z,102353.94
2023-02-27T00:13:52.891Z,102363.91
2023-02-27T00:16:19.750Z,102361.03
2023-02-27T00:18:46.683Z,102357.69
2023-02-27T00:21:13.494Z,102366.31
2023-02-27T00:23:40.361Z,102365.28
2023-02-27T00:26:07.363Z,102358.88
2023-02-27T00:28:34.290Z,102367.84
2023-02-27T00:31:01.212Z,102357.94
2023-02-27T00:33:28.210Z,102357.88
2023-02-27T00:35:57.928Z,102352.47
2023-02-27T00:38:25.263Z,102353.13
2023-02-27T00:40:52.299Z,102356.75
2023-02-27T00:43:19.264Z,102357.47
2023-02-27T00:45:46.141Z,102351.25
2023-02-27T00:48:12.967Z,102351.25
2023-02-27T00:50:40.008Z,102345.03
2023-02-27T00:53:06.845Z,102349.47
2023-02-27T00:55:33.677Z,102354.72
2023-02-27T00:58:00.718Z,102357.31
2023-02-27T01:00:28.349Z,102359.00
2023-02-27T01:02:55.904Z,102359.78
2023-02-27T01:05:23.269Z,102356.03
2023-02-27T01:07:50.484Z,102354.09
2023-02-27T01:10:17.879Z,102347.75
2023-02-27T01:12:44.699Z,102353.81
2023-02-27T01:15:12.602Z,102360.66
2023-02-27T01:17:39.841Z,102361.47
2023-02-27T01:20:08.837Z,102363.94
2023-02-27T01:22:35.879Z,102353.16
2023-02-27T01:25:02.722Z,102356.47
2023-02-27T01:27:29.698Z,102358.13
2023-02-27T01:29:56.841Z,102358.91
2023-02-27T01:32:24.132Z,102365.94
2023-02-27T01:34:51.118Z,102366.69
2023-02-27T01:37:18.819Z,102362.69
2023-02-27T01:39:45.683Z,102364.56
2023-02-27T01:42:27.927Z,102354.81
2023-02-27T01:45:29.537Z,102358.94
2023-02-27T01:48:33.568Z,102355.31
2023-02-27T01:51:12.775Z,102352.44
2023-02-27T01:53:41.826Z,102355.72
2023-02-27T01:56:22.636Z,102354.81
2023-02-27T01:58:52.364Z,102349.38
2023-02-27T02:01:22.154Z,102342.16
2023-02-27T02:04:01.400Z,102335.78
2023-02-27T02:06:32.323Z,102347.31
2023-02-27T02:09:01.763Z,102339.22
2023-02-27T02:11:29.267Z,102335.63
2023-02-27T02:14:00.007Z,102339.03
2023-02-27T02:16:47.822Z,102334.47
2023-02-27T02:20:01.161Z,102334.47
2023-02-27T02:22:46.003Z,102342.09
2023-02-27T02:25:42.711Z,102332.13
2023-02-27T02:28:46.761Z,102334.69
2023-02-27T02:31:48.788Z,102337.16
2023-02-27T02:35:02.745Z,102333.44
2023-02-27T02:38:06.799Z,102344.88
2023-02-27T02:40:50.538Z,102338.41
2023-02-27T02:43:38.309Z,102334.63
2023-02-27T02:46:30.620Z,102340.78
2023-02-27T02:49:30.068Z,102336.22
2023-02-27T02:52:04.780Z,102336.94
2023-02-27T02:54:42.786Z,102333.38
2023-02-27T02:57:21.713Z,102336.63
2023-02-27T03:00:06.469Z,102338.34
2023-02-27T03:02:45.698Z,102337.31
2023-02-27T03:05:45.082Z,102337.84
2023-02-27T03:08:20.645Z,102338.91
2023-02-27T03:11:08.476Z,102337.16
2023-02-27T03:13:46.084Z,102340.53
2023-02-27T03:16:41.418Z,102335.25
2023-02-27T03:19:26.609Z,102336.06
2023-02-27T03:22:06.168Z,102338.56
2023-02-27T03:24:41.503Z,102335.88
2023-02-27T03:27:10.112Z,102336.75
2023-02-27T03:29:54.428Z,102337.72
2023-02-27T03:32:34.284Z,102337.00
2023-02-27T03:35:02.972Z,102339.53
2023-02-27T03:37:56.965Z,102329.59
2023-02-27T03:40:35.304Z,102330.53
2023-02-27T03:43:09.130Z,102338.56
2023-02-27T03:45:47.790Z,102325.09
2023-02-27T03:48:14.785Z,102323.28
2023-02-27T03:50:41.708Z,102321.38
2023-02-27T03:53:51.800Z,102325.19
2023-02-27T03:56:28.620Z,102332.03
2023-02-27T03:58:55.790Z,102330.38
2023-02-27T04:01:22.931Z,102332.09
2023-02-27T04:03:59.165Z,102333.94
2023-02-27T04:06:44.612Z,102327.53
2023-02-27T04:09:13.667Z,102332.09
2023-02-27T04:12:23.661Z,102325.03
2023-02-27T04:15:24.161Z,102326.94
2023-02-27T04:18:15.659Z,102320.78
2023-02-27T04:20:56.856Z,102321.47
2023-02-27T04:23:45.480Z,102333.22
2023-02-27T04:26:37.038Z,102333.41
2023-02-27T04:29:24.686Z,102333.22
2023-02-27T04:32:10.283Z,102328.81
2023-02-27T04:34:47.680Z,102325.09
2023-02-27T04:37:31.354Z,102332.09
2023-02-27T04:40:10.848Z,102326.03
2023-02-27T04:42:48.753Z,102328.81
2023-02-27T04:45:21.916Z,102334.00
2023-02-27T04:48:13.353Z,102327.63
2023-02-27T04:50:52.984Z,102327.72
2023-02-27T04:53:45.800Z,102324.06
2023-02-27T04:56:34.515Z,102328.97
2023-02-27T04:59:13.819Z,102328.91
2023-02-27T05:01:48.188Z,102331.66
2023-02-27T05:04:19.657Z,102328.97
2023-02-27T05:06:49.097Z,102332.69
2023-02-27T05:09:54.318Z,102332.03
2023-02-27T05:12:34.208Z,102332.84
2023-02-27T05:15:11.346Z,102318.50
2023-02-27T05:18:09.227Z,102323.06
2023-02-27T05:21:10.158Z,102330.94
2023-02-27T05:23:58.390Z,102327.63
2023-02-27T05:26:49.445Z,102325.06
2023-02-27T05:29:50.143Z,102329.38
2023-02-27T05:32:40.270Z,102326.63
2023-02-27T05:35:40.545Z,102314.03
2023-02-27T05:38:19.817Z,102311.97
2023-02-27T05:41:12.937Z,102311.97
2023-02-27T05:43:50.684Z,102314.47
2023-02-27T05:46:27.970Z,102313.34
2023-02-27T05:49:02.273Z,102310.59
2023-02-27T05:51:34.121Z,102315.09
2023-02-27T05:54:08.061Z,102325.63
2023-02-27T05:56:37.650Z,102322.94
2023-02-27T05:59:17.399Z,102336.03
2023-02-27T06:01:46.280Z,102327.03
2023-02-27T06:04:13.446Z,102334.06
2023-02-27T06:06:42.350Z,102334.84
2023-02-27T06:09:09.884Z,102341.06
2023-02-27T06:11:36.793Z,102338.25
2023-02-27T06:14:03.884Z,102348.19
2023-02-27T06:16:31.112Z,102345.38
2023-02-27T06:18:58.350Z,102347.53
2023-02-27T06:21:25.181Z,102348.66
2023-02-27T06:23:52.008Z,102352.13
2023-02-27T06:26:18.853Z,102356.59
2023-02-27T06:28:45.644Z,102358.31
2023-02-27T06:31:12.617Z,102352.03
2023-02-27T06:33:39.808Z,102353.81
2023-02-27T06:36:07.317Z,102359.19
2023-02-27T06:38:34.332Z,102357.28
2023-02-27T06:41:01.140Z,102354.59
2023-02-27T06:43:27.987Z,102359.91
2023-02-27T06:45:55.922Z,102359.75
2023-02-27T06:48:22.802Z,102357.94
2023-02-27T06:50:57.010Z,102348.66
2023-02-27T06:53:25.031Z,102359.19
2023-02-27T06:55:52.115Z,102362.81
2023-02-27T06:58:19.079Z,102361.25
2023-02-27T07:00:46.433Z,102366.75
2023-02-27T07:03:13.601Z,102373.84
2023-02-27T07:05:42.190Z,102362.25
2023-02-27T07:08:10.120Z,102377.31
2023-02-27T07:10:37.520Z,102379.13
2023-02-27T07:13:04.396Z,102368.34
2023-02-27T07:15:31.201Z,102375.25
2023-02-27T07:17:58.215Z,102375.19
2023-02-27T07:20:25.492Z,102382.28
2023-02-27T07:22:52.316Z,102380.31
2023-02-27T07:25:19.241Z,102384.72
2023-02-27T07:27:46.452Z,102382.03
2023-02-27T07:30:14.005Z,102388.09
2023-02-27T07:32:40.790Z,102396.19
2023-02-27T07:35:08.941Z,102389.75
2023-02-27T07:37:35.767Z,102390.63
2023-02-27T07:40:02.756Z,102392.97
2023-02-27T07:42:29.552Z,102399.03
2023-02-27T07:44:56.343Z,102398.00
2023-02-27T07:47:23.132Z,102395.25
2023-02-27T07:49:49.941Z,102401.38
2023-02-27T07:52:17.026Z,102406.41
2023-02-27T07:54:43.937Z,102407.03
2023-02-27T07:57:10.768Z,102403.44
2023-02-27T07:59:37.549Z,102407.66
2023-02-27T08:02:05.028Z,102410.88
2023-02-27T08:04:31.899Z,102409.88
2023-02-27T08:06:58.902Z,102408.75
2023-02-27T08:09:25.707Z,102411.09
2023-02-27T08:11:52.499Z,102407.28
2023-02-27T08:14:19.317Z,102408.94
2023-02-27T08:16:46.395Z,102410.50
2023-02-27T08:19:14.988Z,102424.63
2023-02-27T08:21:42.024Z,102423.41
2023-02-27T08:24:08.935Z,102416.84
2023-02-27T08:26:35.939Z,102421.09
2023-02-27T08:29:02.742Z,102421.66
2023-02-27T08:31:29.548Z,102427.03
2023-02-27T08:34:04.521Z,102421.59
2023-02-27T08:36:36.734Z,102420.06
2023-02-27T08:39:04.556Z,102424.81
2023-02-27T08:41:31.399Z,102423.59
2023-02-27T08:43:58.308Z,102425.16
2023-02-27T08:46:25.563Z,102419.34
2023-02-27T08:48:52.630Z,102422.72
2023-02-27T08:51:19.769Z,102426.19
2023-02-27T08:53:46.596Z,102425.13
2023-02-27T08:56:13.371Z,102427.59
2023-02-27T08:58:40.513Z,102425.41
2023-02-27T09:01:07.349Z,102430.53
2023-02-27T09:03:34.504Z,102428.44
2023-02-27T09:06:01.318Z,102428.94
2023-02-27T09:08:28.161Z,102430.13
2023-02-27T09:10:58.355Z,102424.22
2023-02-27T09:13:25.385Z,102422.13
2023-02-27T09:15:52.673Z,102413.59
2023-02-27T09:18:20.774Z,102429.19
2023-02-27T09:20:51.283Z,102429.88
2023-02-27T09:23:18.809Z,102421.63
2023-02-27T09:25:47.544Z,102416.13
2023-02-27T09:28:15.083Z,102426.63
2023-02-27T09:30:41.906Z,102423.25
2023-02-27T09:33:08.815Z,102436.41
2023-02-27T09:35:36.008Z,102428.13
2023-02-27T09:38:02.798Z,102438.31
2023-02-27T09:40:33.490Z,102437.88
2023-02-27T09:43:14.254Z,102443.53
2023-02-27T09:45:41.633Z,102449.28
2023-02-27T09:48:36.559Z,102446.75
2023-02-27T09:51:04.529Z,102461.03
2023-02-27T09:53:56.577Z,102467.19
2023-02-27T09:56:42.524Z,102457.56
2023-02-27T09:59:29.538Z,102459.41
2023-02-27T10:02:23.013Z,102455.41
2023-02-27T10:05:11.538Z,102466.66
2023-02-27T10:07:48.734Z,102469.78
2023-02-27T10:11:00.449Z,102454.66
2023-02-27T10:14:29.904Z,102450.63
2023-02-27T10:16:59.517Z,102459.69
2023-02-27T10:19:35.477Z,102456.41
2023-02-27T10:22:10.491Z,102461.25
2023-02-27T10:24:51.351Z,102459.13
2023-02-27T10:27:21.600Z,102461.94
2023-02-27T10:29:49.029Z,102455.50
2023-02-27T10:32:25.573Z,102456.38
2023-02-27T10:35:00.916Z,102452.50
2023-02-27T10:37:28.861Z,102454.03
2023-02-27T10:40:00.777Z,102462.78
2023-02-27T10:42:34.788Z,102463.69
2023-02-27T10:45:02.653Z,102465.78
2023-02-27T10:47:30.218Z,102467.63
2023-02-27T10:50:00.146Z,102466.06
2023-02-27T10:52:27.330Z,102469.72
2023-02-27T10:54:54.127Z,102466.06
2023-02-27T10:57:27.979Z,102466.06
2023-02-27T11:00:06.655Z,102463.09
2023-02-27T11:02:40.352Z,102464.94
2023-02-27T11:05:19.979Z,102458.19
2023-02-27T11:07:46.981Z,102465.47
2023-02-27T11:10:13.750Z,102458.19
2023-02-27T11:12:46.124Z,102464.63
2023-02-27T11:15:16.151Z,102466.72
2023-02-27T11:17:44.179Z,102479.63
2023-02-27T11:20:29.686Z,102465.09
2023-02-27T11:23:14.210Z,102468.69
2023-02-27T11:25:42.352Z,102465.09
2023-02-27T11:28:25.346Z,102466.00
2023-02-27T11:31:23.605Z,102470.47
2023-02-27T11:33:56.139Z,102454.84
2023-02-27T11:36:23.908Z,102451.25
2023-02-27T11:38:56.366Z,102451.06
2023-02-27T11:41:34.905Z,102448.94
2023-02-27T11:44:05.695Z,102443.41
2023-02-27T11:46:47.021Z,102444.75
2023-02-27T11:49:34.402Z,102436.34
2023-02-27T11:52:19.678Z,102435.41
2023-02-27T11:54:54.788Z,102436.91
2023-02-27T11:57:32.624Z,102437.88
2023-02-27T12:00:09.206Z,102443.06
2023-02-27T12:03:00.841Z,102436.09
2023-02-27T12:05:39.908Z,102432.38
2023-02-27T12:08:31.530Z,102431.63
2023-02-27T12:11:46.209Z,102431.13
2023-02-27T12:14:28.481Z,102418.16
2023-02-27T12:17:30.809Z,102422.81
2023-02-27T12:20:51.827Z,102417.28
2023-02-27T12:23:28.043Z,102418.34
2023-02-27T12:26:06.044Z,102421.44
2023-02-27T12:28:50.616Z,102414.41
2023-02-27T12:31:34.725Z,102416.69
2023-02-27T12:34:05.682Z,102414.19
2023-02-27T12:36:32.522Z,102414.78
2023-02-27T12:38:59.745Z,102416.53
2023-02-27T12:42:13.416Z,102408.56
2023-02-27T12:45:18.411Z,102406.72
2023-02-27T12:48:03.926Z,102399.19
2023-02-27T12:51:27.633Z,102402.97
2023-02-27T12:54:16.209Z,102398.25
2023-02-27T12:57:06.058Z,102403.81
2023-02-27T13:00:09.374Z,102405.00
2023-02-27T13:02:54.411Z,102408.44
2023-02-27T13:05:37.677Z,102403.69
2023-02-27T13:08:38.448Z,102391.53
2023-02-27T13:11:14.844Z,102406.53
2023-02-27T13:13:50.660Z,102397.06
2023-02-27T13:16:44.912Z,102402.50
2023-02-27T13:19:47.285Z,102389.03
2023-02-27T13:22:28.916Z,102392.72
2023-02-27T13:24:59.951Z,102389.91
2023-02-27T13:27:39.388Z,102381.94
2023-02-27T13:30:34.994Z,102382.91
2023-02-27T13:33:08.192Z,102371.47
2023-02-27T13:36:03.913Z,102379.78
2023-02-27T13:38:43.670Z,102378.75
2023-02-27T13:41:25.720Z,102379.66
2023-02-27T13:43:54.849Z,102380.59
2023-02-27T13:46:34.884Z,102371.34
2023-02-27T13:49:04.445Z,102364.91
2023-02-27T13:51:41.270Z,102361.44
2023-02-27T13:54:14.224Z,102358.66
2023-02-27T13:56:44.189Z,102360.16
2023-02-27T13:59:23.927Z,102355.41
2023-02-27T14:02:00.710Z,102350.97
2023-02-27T14:04:35.661Z,102347.16
2023-02-27T14:07:18.831Z,102350.41
2023-02-27T14:09:49.214Z,102349.53
2023-02-27T14:12:45.775Z,102352.34
2023-02-27T14:15:22.683Z,102352.81
2023-02-27T14:18:09.301Z,102357.75
2023-02-27T14:20:43.015Z,102352.56
2023-02-27T14:23:28.279Z,102353.78
2023-02-27T14:25:57.347Z,102365.84
2023-02-27T14:28:34.958Z,102362.00
2023-02-27T14:31:06.050Z,102356.06
2023-02-27T14:33:46.640Z,102350.56
2023-02-27T14:36:22.187Z,102358.44
2023-02-27T14:38:51.130Z,102354.34
2023-02-27T14:41:40.059Z,102354.56
2023-02-27T14:44:20.300Z,102349.06
2023-02-27T14:46:47.446Z,102346.13
2023-02-27T14:49:26.445Z,102342.69
2023-02-27T14:51:53.852Z,102339.63
2023-02-27T14:54:27.424Z,102338.78
2023-02-27T14:57:01.402Z,102339.97
2023-02-27T14:59:41.811Z,102342.13
2023-02-27T15:02:36.345Z,102327.00
2023-02-27T15:05:03.482Z,102328.72
2023-02-27T15:07:35.720Z,102338.50
2023-02-27T15:10:08.350Z,102337.75
2023-02-27T15:12:39.807Z,102346.06
2023-02-27T15:15:10.247Z,102332.53
2023-02-27T15:17:46.208Z,102341.78
2023-02-27T15:20:30.017Z,102334.47
2023-02-27T15:22:58.850Z,102336.28
2023-02-27T15:25:33.990Z,102341.03
2023-02-27T15:28:08.000Z,102343.00
2023-02-27T15:30:35.234Z,102337.72
2023-02-27T15:33:03.080Z,102327.69
2023-02-27T15:35:37.266Z,102334.94
2023-02-27T15:38:04.669Z,102333.94
2023-02-27T15:40:34.284Z,102334.94
2023-02-27T15:43:01.844Z,102338.47
2023-02-27T15:45:36.216Z,102335.13
2023-02-27T15:48:05.108Z,102339.44
2023-02-27T15:50:38.204Z,102333.41
2023-02-27T15:53:08.054Z,102334.38
2023-02-27T15:55:39.996Z,102331.25
2023-02-27T15:58:25.065Z,102333.19
2023-02-27T16:01:06.329Z,102334.94
2023-02-27T16:03:38.496Z,102335.44
2023-02-27T16:06:27.819Z,102329.31
2023-02-27T16:09:03.730Z,102335.13
2023-02-27T16:11:37.687Z,102334.50
2023-02-27T16:14:06.267Z,102325.66
2023-02-27T16:16:36.325Z,102325.53
2023-02-27T16:19:22.738Z,102327.16
2023-02-27T16:22:14.425Z,102320.75
2023-02-27T16:24:42.388Z,102337.19
2023-02-27T16:27:31.955Z,102336.44
2023-02-27T16:30:05.173Z,102337.19
2023-02-27T16:32:44.324Z,102334.69
2023-02-27T16:35:23.747Z,102338.59
2023-02-27T16:37:51.040Z,102343.88
2023-02-27T16:40:24.705Z,102343.97
2023-02-27T16:42:52.560Z,102337.84
2023-02-27T16:45:28.127Z,102337.84
2023-02-27T16:48:00.573Z,102348.06
2023-02-27T16:50:30.558Z,102348.06
2023-02-27T16:52:57.731Z,102350.00
2023-02-27T16:55:25.464Z,102352.72
2023-02-27T16:57:52.409Z,102345.91
2023-02-27T17:00:20.751Z,102347.00
2023-02-27T17:02:48.420Z,102348.19
2023-02-27T17:05:15.775Z,102352.81
2023-02-27T17:07:43.542Z,102356.47
2023-02-27T17:10:17.236Z,102362.28
2023-02-27T17:12:44.249Z,102357.09
2023-02-27T17:15:11.452Z,102356.34
2023-02-27T17:17:38.314Z,102366.38
2023-02-27T17:20:07.489Z,102361.94
2023-02-27T17:22:40.575Z,102366.56
2023-02-27T17:25:09.478Z,102373.91
2023-02-27T17:27:36.666Z,102367.84
2023-02-27T17:30:06.246Z,102371.53
2023-02-27T17:32:34.671Z,102375.09
2023-02-27T17:35:02.226Z,102372.59
2023-02-27T17:37:29.061Z,102377.03
2023-02-27T17:39:56.041Z,102376.38
2023-02-27T17:42:25.890Z,102385.31
2023-02-27T17:44:53.251Z,102378.22
2023-02-27T17:47:20.443Z,102384.66
2023-02-27T17:49:47.679Z,102381.19
2023-02-27T17:52:14.925Z,102384.88
2023-02-27T17:54:41.737Z,102389.41
2023-02-27T17:57:10.606Z,102386.47
2023-02-27T17:59:37.637Z,102390.25
2023-02-27T18:02:04.611Z,102393.81
2023-02-27T18:04:32.167Z,102397.47
2023-02-27T18:06:59.090Z,102405.56
2023-02-27T18:09:25.929Z,102399.94
2023-02-27T18:11:52.757Z,102402.75
2023-02-27T18:14:19.551Z,102404.69
2023-02-27T18:16:46.893Z,102407.28
2023-02-27T18:19:14.694Z,102407.28
2023-02-27T18:21:42.966Z,102416.53
2023-02-27T18:24:10.026Z,102417.47
2023-02-27T18:26:37.511Z,102418.25
2023-02-27T18:29:08.674Z,102417.47
2023-02-27T18:31:40.482Z,102424.53
2023-02-27T18:34:07.949Z,102420.00
2023-02-27T18:36:36.044Z,102422.69
2023-02-27T18:39:05.405Z,102423.63
2023-02-27T18:41:32.768Z,102427.13
2023-02-27T18:43:59.671Z,102426.13
2023-02-27T18:46:27.977Z,102430.75
2023-02-27T18:48:55.413Z,102421.72
2023-02-27T18:51:22.271Z,102425.28
2023-02-27T18:53:50.824Z,102437.00
2023-02-27T18:56:23.862Z,102423.84
2023-02-27T18:58:51.922Z,102429.03
2023-02-27T19:01:27.088Z,102425.56
2023-02-27T19:04:00.484Z,102421.06
2023-02-27T19:06:28.410Z,102431.84
2023-02-27T19:08:55.724Z,102425.78
2023-02-27T19:11:26.058Z,102433.88
2023-02-27T19:13:52.882Z,102432.88
2023-02-27T19:16:19.890Z,102437.59
2023-02-27T19:18:47.056Z,102436.84
2023-02-27T19:21:13.950Z,102437.94
2023-02-27T19:23:40.836Z,102442.47
2023-02-27T19:26:07.749Z,102446.19
2023-02-27T19:28:34.816Z,102443.63
2023-02-27T19:31:10.930Z,102434.88
2023-02-27T19:33:38.314Z,102441.22
2023-02-27T19:36:15.106Z,102444.91
2023-02-27T19:38:42.394Z,102437.00
2023-02-27T19:41:12.453Z,102431.81
2023-02-27T19:43:41.204Z,102439.88
2023-02-27T19:46:23.925Z,102436.44
2023-02-27T19:48:53.044Z,102439.34
2023-02-27T19:51:21.416Z,102436.66
2023-02-27T19:53:48.744Z,102434.91
2023-02-27T19:56:23.313Z,102445.78
2023-02-27T19:58:51.176Z,102444.34
2023-02-27T20:01:33.880Z,102445.19
2023-02-27T20:04:02.668Z,102441.56
2023-02-27T20:06:33.322Z,102444.56
2023-02-27T20:09:00.588Z,102440.31
2023-02-27T20:11:31.916Z,102438.66
2023-02-27T20:14:00.060Z,102442.50
2023-02-27T20:16:34.642Z,102448.09
2023-02-27T20:19:06.191Z,102441.66
2023-02-27T20:21:34.488Z,102441.66
2023-02-27T20:24:01.601Z,102442.69
2023-02-27T20:26:40.297Z,102441.75
2023-02-27T20:29:17.369Z,102443.59
2023-02-27T20:31:48.987Z,102442.78
2023-02-27T20:34:22.064Z,102441.66
2023-02-27T20:36:54.856Z,102439.91
2023-02-27T20:39:21.990Z,102442.91
2023-02-27T20:41:50.058Z,102446.47
2023-02-27T20:44:17.280Z,102445.69
2023-02-27T20:46:44.756Z,102446.16
2023-02-27T20:49:15.775Z,102455.22
2023-02-27T20:51:43.779Z,102453.56
2023-02-27T20:54:16.709Z,102454.34
2023-02-27T20:56:44.238Z,102452.44
2023-02-27T20:59:16.120Z,102451.66
2023-02-27T21:01:51.849Z,102447.31
2023-02-27T21:04:43.396Z,102452.59
2023-02-27T21:07:13.447Z,102443.78
2023-02-27T21:09:40.450Z,102443.78
2023-02-27T21:12:08.112Z,102447.41
2023-02-27T21:14:35.177Z,102448.56
2023-02-27T21:17:02.508Z,102439.66
2023-02-27T21:19:29.947Z,102436.09
2023-02-27T21:21:57.048Z,102436.84
2023-02-27T21:24:24.087Z,102438.78
2023-02-27T21:26:50.955Z,102443.28
2023-02-27T21:29:20.968Z,102434.66
2023-02-27T21:31:50.874Z,102431.00
2023-02-27T21:34:25.609Z,102440.72
2023-02-27T21:36:53.524Z,102437.63
2023-02-27T21:39:24.796Z,102429.38
2023-02-27T21:41:52.343Z,102432.06
2023-02-27T21:44:22.017Z,102430.41
2023-02-27T21:46:48.850Z,102444.94
2023-02-27T21:49:24.147Z,102440.13
2023-02-27T21:51:51.597Z,102444.94
2023-02-27T21:54:19.533Z,102443.59
2023-02-27T21:56:48.201Z,102439.72
2023-02-27T21:59:16.516Z,102441.09
2023-02-27T22:01:47.641Z,102446.03
2023-02-27T22:04:19.801Z,102441.06
2023-02-27T22:06:48.120Z,102436.81
2023-02-27T22:09:15.886Z,102439.69
2023-02-27T22:11:43.259Z,102442.84
2023-02-27T22:14:12.476Z,102442.84
2023-02-27T22:16:40.103Z,102440.25
2023-02-27T22:19:13.817Z,102447.69
2023-02-27T22:21:41.049Z,102444.66
2023-02-27T22:24:12.120Z,102437.63
2023-02-27T22:26:39.009Z,102447.28
2023-02-27T22:29:06.958Z,102443.59
2023-02-27T22:31:40.407Z,102448.03
2023-02-27T22:34:18.187Z,102446.97
2023-02-27T22:36:48.812Z,102446.97
2023-02-27T22:39:15.628Z,102449.38
2023-02-27T22:41:43.111Z,102451.13
2023-02-27T22:44:13.995Z,102455.25
2023-02-27T22:46:45.669Z,102447.03
2023-02-27T22:49:23.754Z,102455.94
2023-02-27T22:51:52.192Z,102463.91
2023-02-27T22:54:21.889Z,102469.09
2023-02-27T22:56:55.196Z,102463.72
2023-02-27T22:59:23.900Z,102481.59
2023-02-27T23:01:51.713Z,102472.38
2023-02-27T23:04:18.850Z,102472.38
2023-02-27T23:06:45.944Z,102476.81
2023-02-27T23:09:17.492Z,102478.53
2023-02-27T23:11:45.215Z,102475.06
2023-02-27T23:14:13.709Z,102478.53
2023-02-27T23:16:45.934Z,102477.28
2023-02-27T23:19:20.299Z,102483.63
2023-02-27T23:21:47.912Z,102483.63
2023-02-27T23:24:19.288Z,102481.97
2023-02-27T23:26:49.658Z,102481.72
2023-02-27T23:29:16.569Z,102486.03
2023-02-27T23:31:43.496Z,102482.41
2023-02-27T23:34:10.811Z,102480.66
2023-02-27T23:36:39.243Z,102473.53
2023-02-27T23:39:07.628Z,102481.41
2023-02-27T23:41:34.945Z,102479.78
2023-02-27T23:44:20.675Z,102482.41
2023-02-27T23:46:47.555Z,102486.97
2023-02-27T23:49:14.391Z,102480.81
2023-02-27T23:51:41.709Z,102485.25
2023-02-27T23:54:08.834Z,102482.56
2023-02-27T23:56:35.689Z,102484.97
2023-02-27T23:59:05.928Z,102485.72
